sensor_id;sensor_type;location;lat;lon;timestamp;temperature;humidity
20670;DHT22;10494;50.868;4.180;2022-09-09T00:03:57;15.10;99.90
20670;DHT22;10494;50.868;4.180;2022-09-09T00:06:30;15.00;99.90
20670;DHT22;10494;50.868;4.180;2022-09-09T00:11:47;15.00;99.90
20670;DHT22;10494;50.868;4.180;2022-09-09T00:14:23;15.00;99.90
20670;DHT22;10494;50.868;4.180;2022-09-09T00:16:55;15.00;99.90
20670;DHT22;10494;50.868;4.180;2022-09-09T00:22:15;15.10;99.90
20670;DHT22;10494;50.868;4.180;2022-09-09T00:24:49;15.00;99.90
20670;DHT22;10494;50.868;4.180;2022-09-09T00:27:31;15.10;99.90
20670;DHT22;10494;50.868;4.180;2022-09-09T00:30:21;15.20;99.90
20670;DHT22;10494;50.868;4.180;2022-09-09T00:33:10;15.20;99.90
20670;DHT22;10494;50.868;4.180;2022-09-09T00:35:40;15.20;99.90
20670;DHT22;10494;50.868;4.180;2022-09-09T00:38:15;15.20;99.90
20670;DHT22;10494;50.868;4.180;2022-09-09T00:43:32;15.10;99.90
20670;DHT22;10494;50.868;4.180;2022-09-09T00:48:52;15.20;99.90
20670;DHT22;10494;50.868;4.180;2022-09-09T00:51:44;15.10;99.90
20670;DHT22;10494;50.868;4.180;2022-09-09T00:54:40;15.20;99.90
20670;DHT22;10494;50.868;4.180;2022-09-09T00:57:14;15.10;99.90
20670;DHT22;10494;50.868;4.180;2022-09-09T00:59:56;15.20;99.90
20670;DHT22;10494;50.868;4.180;2022-09-09T01:02:50;15.20;99.90
20670;DHT22;10494;50.868;4.180;2022-09-09T01:08:01;15.20;99.90
20670;DHT22;10494;50.868;4.180;2022-09-09T01:13:08;15.20;99.90
20670;DHT22;10494;50.868;4.180;2022-09-09T01:15:39;15.20;99.90
20670;DHT22;10494;50.868;4.180;2022-09-09T01:18:08;15.20;99.90
20670;DHT22;10494;50.868;4.180;2022-09-09T01:24:13;15.20;99.90
20670;DHT22;10494;50.868;4.180;2022-09-09T01:26:44;15.20;99.90
20670;DHT22;10494;50.868;4.180;2022-09-09T01:29:13;15.10;99.90
20670;DHT22;10494;50.868;4.180;2022-09-09T01:31:55;15.10;99.90
20670;DHT22;10494;50.868;4.180;2022-09-09T01:34:24;15.00;99.90
20670;DHT22;10494;50.868;4.180;2022-09-09T01:37:10;15.10;99.90
20670;DHT22;10494;50.868;4.180;2022-09-09T01:39:39;15.10;99.90
20670;DHT22;10494;50.868;4.180;2022-09-09T01:42:09;15.10;99.90
20670;DHT22;10494;50.868;4.180;2022-09-09T01:44:36;15.10;99.90
20670;DHT22;10494;50.868;4.180;2022-09-09T01:47:02;15.20;99.90
20670;DHT22;10494;50.868;4.180;2022-09-09T01:49:28;15.20;99.90
20670;DHT22;10494;50.868;4.180;2022-09-09T01:51:55;15.20;99.90
20670;DHT22;10494;50.868;4.180;2022-09-09T01:54:24;15.20;99.90
20670;DHT22;10494;50.868;4.180;2022-09-09T02:00:04;15.20;99.90
20670;DHT22;10494;50.868;4.180;2022-09-09T02:02:57;15.20;99.90
20670;DHT22;10494;50.868;4.180;2022-09-09T02:05:38;15.10;99.90
20670;DHT22;10494;50.868;4.180;2022-09-09T02:08:10;15.10;99.90
20670;DHT22;10494;50.868;4.180;2022-09-09T02:13:18;15.20;99.90
20670;DHT22;10494;50.868;4.180;2022-09-09T02:18:22;15.20;99.90
20670;DHT22;10494;50.868;4.180;2022-09-09T02:20:50;15.20;99.90
20670;DHT22;10494;50.868;4.180;2022-09-09T02:23:17;15.20;99.90
20670;DHT22;10494;50.868;4.180;2022-09-09T02:25:45;15.20;99.90
20670;DHT22;10494;50.868;4.180;2022-09-09T02:28:12;15.30;99.90
20670;DHT22;10494;50.868;4.180;2022-09-09T02:30:40;15.30;99.90
20670;DHT22;10494;50.868;4.180;2022-09-09T02:33:07;15.30;99.90
20670;DHT22;10494;50.868;4.180;2022-09-09T02:35:36;15.30;99.90
20670;DHT22;10494;50.868;4.180;2022-09-09T02:38:06;15.30;99.90
20670;DHT22;10494;50.868;4.180;2022-09-09T02:40:32;15.30;99.90
20670;DHT22;10494;50.868;4.180;2022-09-09T02:42:58;15.30;99.90
20670;DHT22;10494;50.868;4.180;2022-09-09T02:45:31;15.30;99.90
20670;DHT22;10494;50.868;4.180;2022-09-09T02:53:19;15.40;99.90
20670;DHT22;10494;50.868;4.180;2022-09-09T02:56:05;15.40;99.90
20670;DHT22;10494;50.868;4.180;2022-09-09T02:58:35;15.30;99.90
20670;DHT22;10494;50.868;4.180;2022-09-09T03:01:01;15.30;99.90
20670;DHT22;10494;50.868;4.180;2022-09-09T03:03:28;15.30;99.90
20670;DHT22;10494;50.868;4.180;2022-09-09T03:05:55;15.30;99.90
20670;DHT22;10494;50.868;4.180;2022-09-09T03:08:22;15.40;99.90
20670;DHT22;10494;50.868;4.180;2022-09-09T03:10:48;15.40;99.90
20670;DHT22;10494;50.868;4.180;2022-09-09T03:13:14;15.30;99.90
20670;DHT22;10494;50.868;4.180;2022-09-09T03:15:40;15.40;99.90
20670;DHT22;10494;50.868;4.180;2022-09-09T03:18:06;15.40;99.90
20670;DHT22;10494;50.868;4.180;2022-09-09T03:20:32;15.50;99.90
20670;DHT22;10494;50.868;4.180;2022-09-09T03:22:59;15.50;99.90
20670;DHT22;10494;50.868;4.180;2022-09-09T03:25:25;15.50;99.90
20670;DHT22;10494;50.868;4.180;2022-09-09T03:27:51;15.40;99.90
20670;DHT22;10494;50.868;4.180;2022-09-09T03:30:23;15.40;99.90
20670;DHT22;10494;50.868;4.180;2022-09-09T03:32:49;15.40;99.90
20670;DHT22;10494;50.868;4.180;2022-09-09T03:35:15;15.30;99.90
20670;DHT22;10494;50.868;4.180;2022-09-09T03:37:41;15.30;99.90
20670;DHT22;10494;50.868;4.180;2022-09-09T03:40:07;15.30;99.90
20670;DHT22;10494;50.868;4.180;2022-09-09T03:42:35;15.40;99.90
20670;DHT22;10494;50.868;4.180;2022-09-09T03:45:03;15.40;99.90
20670;DHT22;10494;50.868;4.180;2022-09-09T03:47:29;15.40;99.90
20670;DHT22;10494;50.868;4.180;2022-09-09T03:49:55;15.50;99.90
20670;DHT22;10494;50.868;4.180;2022-09-09T03:52:20;15.50;99.90
20670;DHT22;10494;50.868;4.180;2022-09-09T03:54:50;15.50;99.90
20670;DHT22;10494;50.868;4.180;2022-09-09T03:57:16;15.50;99.90
20670;DHT22;10494;50.868;4.180;2022-09-09T03:59:42;15.60;99.90
20670;DHT22;10494;50.868;4.180;2022-09-09T04:02:08;15.70;99.90
20670;DHT22;10494;50.868;4.180;2022-09-09T04:04:34;15.60;99.90
20670;DHT22;10494;50.868;4.180;2022-09-09T04:07:00;15.60;99.90
20670;DHT22;10494;50.868;4.180;2022-09-09T04:09:26;15.60;99.90
20670;DHT22;10494;50.868;4.180;2022-09-09T04:11:52;15.60;99.90
20670;DHT22;10494;50.868;4.180;2022-09-09T04:14:18;15.50;99.90
20670;DHT22;10494;50.868;4.180;2022-09-09T04:16:44;15.50;99.90
20670;DHT22;10494;50.868;4.180;2022-09-09T04:19:11;15.50;99.90
20670;DHT22;10494;50.868;4.180;2022-09-09T04:21:39;15.40;99.90
20670;DHT22;10494;50.868;4.180;2022-09-09T04:24:06;15.40;99.90
20670;DHT22;10494;50.868;4.180;2022-09-09T04:26:32;15.40;99.90
20670;DHT22;10494;50.868;4.180;2022-09-09T04:28:58;15.40;99.90
20670;DHT22;10494;50.868;4.180;2022-09-09T04:31:24;15.40;99.90
20670;DHT22;10494;50.868;4.180;2022-09-09T04:33:50;15.30;99.90
20670;DHT22;10494;50.868;4.180;2022-09-09T04:36:16;15.30;99.90
20670;DHT22;10494;50.868;4.180;2022-09-09T04:38:42;15.40;99.90
20670;DHT22;10494;50.868;4.180;2022-09-09T04:41:09;15.30;99.90
20670;DHT22;10494;50.868;4.180;2022-09-09T04:43:37;15.40;99.90
20670;DHT22;10494;50.868;4.180;2022-09-09T04:46:03;15.30;99.90
20670;DHT22;10494;50.868;4.180;2022-09-09T04:48:28;15.30;99.90
20670;DHT22;10494;50.868;4.180;2022-09-09T04:51:05;15.30;99.90
20670;DHT22;10494;50.868;4.180;2022-09-09T04:53:31;15.30;99.90
20670;DHT22;10494;50.868;4.180;2022-09-09T04:56:12;15.30;99.90
20670;DHT22;10494;50.868;4.180;2022-09-09T04:58:38;15.30;99.90
20670;DHT22;10494;50.868;4.180;2022-09-09T05:01:23;15.20;99.90
20670;DHT22;10494;50.868;4.180;2022-09-09T05:03:49;15.30;99.90
20670;DHT22;10494;50.868;4.180;2022-09-09T05:06:17;15.30;99.90
20670;DHT22;10494;50.868;4.180;2022-09-09T05:08:44;15.30;99.90
20670;DHT22;10494;50.868;4.180;2022-09-09T05:13:46;15.40;99.90
20670;DHT22;10494;50.868;4.180;2022-09-09T05:16:13;15.40;99.90
20670;DHT22;10494;50.868;4.180;2022-09-09T05:18:39;15.40;99.90
20670;DHT22;10494;50.868;4.180;2022-09-09T05:21:05;15.40;99.90
20670;DHT22;10494;50.868;4.180;2022-09-09T05:23:32;15.40;99.90
20670;DHT22;10494;50.868;4.180;2022-09-09T05:25:59;15.40;99.90
20670;DHT22;10494;50.868;4.180;2022-09-09T05:28:26;15.50;99.90
20670;DHT22;10494;50.868;4.180;2022-09-09T05:30:59;15.40;99.90
20670;DHT22;10494;50.868;4.180;2022-09-09T05:33:26;15.40;99.90
20670;DHT22;10494;50.868;4.180;2022-09-09T05:35:59;15.50;99.90
20670;DHT22;10494;50.868;4.180;2022-09-09T05:38:27;15.40;99.90
20670;DHT22;10494;50.868;4.180;2022-09-09T05:40:53;15.40;99.90
20670;DHT22;10494;50.868;4.180;2022-09-09T05:43:20;15.40;99.90
20670;DHT22;10494;50.868;4.180;2022-09-09T05:45:47;15.40;99.90
20670;DHT22;10494;50.868;4.180;2022-09-09T05:48:13;15.40;99.90
20670;DHT22;10494;50.868;4.180;2022-09-09T05:50:40;15.50;99.90
20670;DHT22;10494;50.868;4.180;2022-09-09T05:53:06;15.60;99.90
20670;DHT22;10494;50.868;4.180;2022-09-09T05:55:32;15.60;99.90
20670;DHT22;10494;50.868;4.180;2022-09-09T05:57:57;15.60;99.90
20670;DHT22;10494;50.868;4.180;2022-09-09T06:00:23;15.60;99.90
20670;DHT22;10494;50.868;4.180;2022-09-09T06:02:52;15.70;99.90
20670;DHT22;10494;50.868;4.180;2022-09-09T06:05:18;15.80;99.90
20670;DHT22;10494;50.868;4.180;2022-09-09T06:07:44;15.90;99.90
20670;DHT22;10494;50.868;4.180;2022-09-09T06:10:11;15.90;99.90
20670;DHT22;10494;50.868;4.180;2022-09-09T06:12:39;16.00;99.90
20670;DHT22;10494;50.868;4.180;2022-09-09T06:15:05;15.90;99.90
20670;DHT22;10494;50.868;4.180;2022-09-09T06:17:31;15.90;99.90
20670;DHT22;10494;50.868;4.180;2022-09-09T06:19:56;15.90;99.90
20670;DHT22;10494;50.868;4.180;2022-09-09T06:22:22;15.90;99.90
20670;DHT22;10494;50.868;4.180;2022-09-09T06:24:48;16.00;99.90
20670;DHT22;10494;50.868;4.180;2022-09-09T06:27:13;16.10;99.90
20670;DHT22;10494;50.868;4.180;2022-09-09T06:29:39;16.10;99.90
20670;DHT22;10494;50.868;4.180;2022-09-09T06:32:05;16.30;99.90
20670;DHT22;10494;50.868;4.180;2022-09-09T06:34:30;16.40;99.90
20670;DHT22;10494;50.868;4.180;2022-09-09T06:36:56;16.40;99.90
20670;DHT22;10494;50.868;4.180;2022-09-09T06:39:23;16.40;99.90
20670;DHT22;10494;50.868;4.180;2022-09-09T06:41:49;16.30;99.90
20670;DHT22;10494;50.868;4.180;2022-09-09T06:44:15;16.30;99.90
20670;DHT22;10494;50.868;4.180;2022-09-09T06:46:40;16.30;99.90
20670;DHT22;10494;50.868;4.180;2022-09-09T06:49:07;16.30;99.90
20670;DHT22;10494;50.868;4.180;2022-09-09T06:51:37;16.40;99.90
20670;DHT22;10494;50.868;4.180;2022-09-09T06:54:08;16.40;99.90
20670;DHT22;10494;50.868;4.180;2022-09-09T06:56:36;16.50;99.90
20670;DHT22;10494;50.868;4.180;2022-09-09T06:59:04;16.70;99.90
20670;DHT22;10494;50.868;4.180;2022-09-09T07:01:38;16.70;99.90
20670;DHT22;10494;50.868;4.180;2022-09-09T07:04:06;16.80;99.90
20670;DHT22;10494;50.868;4.180;2022-09-09T07:06:38;16.90;99.90
20670;DHT22;10494;50.868;4.180;2022-09-09T07:09:06;17.00;99.90
20670;DHT22;10494;50.868;4.180;2022-09-09T07:11:38;16.90;99.90
20670;DHT22;10494;50.868;4.180;2022-09-09T07:14:04;17.00;99.90
20670;DHT22;10494;50.868;4.180;2022-09-09T07:16:30;17.00;99.90
20670;DHT22;10494;50.868;4.180;2022-09-09T07:18:58;16.90;99.90
20670;DHT22;10494;50.868;4.180;2022-09-09T07:21:25;16.90;99.90
20670;DHT22;10494;50.868;4.180;2022-09-09T07:23:54;16.80;99.90
20670;DHT22;10494;50.868;4.180;2022-09-09T07:26:23;16.60;99.90
20670;DHT22;10494;50.868;4.180;2022-09-09T07:28:49;16.50;99.90
20670;DHT22;10494;50.868;4.180;2022-09-09T07:33:42;16.40;99.90
20670;DHT22;10494;50.868;4.180;2022-09-09T07:36:18;16.50;99.90
20670;DHT22;10494;50.868;4.180;2022-09-09T07:38:52;16.40;99.90
20670;DHT22;10494;50.868;4.180;2022-09-09T07:41:21;16.40;99.90
20670;DHT22;10494;50.868;4.180;2022-09-09T07:43:47;16.40;99.90
20670;DHT22;10494;50.868;4.180;2022-09-09T07:46:16;16.60;99.90
20670;DHT22;10494;50.868;4.180;2022-09-09T07:48:50;16.70;99.90
20670;DHT22;10494;50.868;4.180;2022-09-09T07:51:18;17.00;99.90
20670;DHT22;10494;50.868;4.180;2022-09-09T07:53:45;17.20;99.90
20670;DHT22;10494;50.868;4.180;2022-09-09T07:56:14;17.40;99.90
20670;DHT22;10494;50.868;4.180;2022-09-09T07:58:44;17.30;99.90
20670;DHT22;10494;50.868;4.180;2022-09-09T08:01:19;17.40;99.90
20670;DHT22;10494;50.868;4.180;2022-09-09T08:03:45;17.40;99.90
20670;DHT22;10494;50.868;4.180;2022-09-09T08:06:11;17.50;99.90
20670;DHT22;10494;50.868;4.180;2022-09-09T08:08:38;17.40;99.90
20670;DHT22;10494;50.868;4.180;2022-09-09T08:11:07;17.20;99.90
20670;DHT22;10494;50.868;4.180;2022-09-09T08:13:35;17.30;99.90
20670;DHT22;10494;50.868;4.180;2022-09-09T08:16:16;17.40;99.90
20670;DHT22;10494;50.868;4.180;2022-09-09T08:18:42;17.50;99.90
20670;DHT22;10494;50.868;4.180;2022-09-09T08:21:16;17.50;99.90
20670;DHT22;10494;50.868;4.180;2022-09-09T08:23:44;17.70;99.90
20670;DHT22;10494;50.868;4.180;2022-09-09T08:26:16;17.70;99.90
20670;DHT22;10494;50.868;4.180;2022-09-09T08:28:43;17.50;99.90
20670;DHT22;10494;50.868;4.180;2022-09-09T08:31:17;17.30;99.90
20670;DHT22;10494;50.868;4.180;2022-09-09T08:33:44;17.30;99.90
20670;DHT22;10494;50.868;4.180;2022-09-09T08:36:18;17.20;99.90
20670;DHT22;10494;50.868;4.180;2022-09-09T08:38:47;17.10;99.90
20670;DHT22;10494;50.868;4.180;2022-09-09T08:43:46;17.00;99.90
20670;DHT22;10494;50.868;4.180;2022-09-09T08:49:24;17.00;99.90
20670;DHT22;10494;50.868;4.180;2022-09-09T08:51:57;17.20;99.90
20670;DHT22;10494;50.868;4.180;2022-09-09T08:54:24;17.20;99.90
20670;DHT22;10494;50.868;4.180;2022-09-09T08:56:51;17.10;99.90
20670;DHT22;10494;50.868;4.180;2022-09-09T08:59:18;17.10;99.90
20670;DHT22;10494;50.868;4.180;2022-09-09T09:10:20;17.10;99.90
20670;DHT22;10494;50.868;4.180;2022-09-09T09:12:51;17.00;99.90
20670;DHT22;10494;50.868;4.180;2022-09-09T09:15:20;17.00;99.90
20670;DHT22;10494;50.868;4.180;2022-09-09T09:17:49;17.10;99.90
20670;DHT22;10494;50.868;4.180;2022-09-09T09:20:20;17.10;99.90
20670;DHT22;10494;50.868;4.180;2022-09-09T09:22:50;17.10;99.90
20670;DHT22;10494;50.868;4.180;2022-09-09T09:25:21;17.10;99.90
20670;DHT22;10494;50.868;4.180;2022-09-09T09:28:07;17.10;99.90
20670;DHT22;10494;50.868;4.180;2022-09-09T09:30:50;17.10;99.90
20670;DHT22;10494;50.868;4.180;2022-09-09T09:33:19;17.10;99.90
20670;DHT22;10494;50.868;4.180;2022-09-09T09:35:46;17.20;99.90
20670;DHT22;10494;50.868;4.180;2022-09-09T09:38:23;17.10;99.90
20670;DHT22;10494;50.868;4.180;2022-09-09T09:40:54;17.10;99.90
20670;DHT22;10494;50.868;4.180;2022-09-09T09:43:31;17.00;99.90
20670;DHT22;10494;50.868;4.180;2022-09-09T09:45:57;17.00;99.90
20670;DHT22;10494;50.868;4.180;2022-09-09T09:48:24;17.10;99.90
20670;DHT22;10494;50.868;4.180;2022-09-09T09:51:05;17.20;99.90
20670;DHT22;10494;50.868;4.180;2022-09-09T09:53:35;17.20;99.90
20670;DHT22;10494;50.868;4.180;2022-09-09T09:56:09;17.30;99.90
20670;DHT22;10494;50.868;4.180;2022-09-09T10:01:30;17.30;99.90
20670;DHT22;10494;50.868;4.180;2022-09-09T10:04:13;17.50;99.90
20670;DHT22;10494;50.868;4.180;2022-09-09T10:06:39;17.70;99.90
20670;DHT22;10494;50.868;4.180;2022-09-09T10:09:24;17.90;99.90
20670;DHT22;10494;50.868;4.180;2022-09-09T10:11:57;18.10;99.90
20670;DHT22;10494;50.868;4.180;2022-09-09T10:17:45;18.10;99.90
20670;DHT22;10494;50.868;4.180;2022-09-09T10:20:32;18.20;99.90
20670;DHT22;10494;50.868;4.180;2022-09-09T10:23:37;18.40;99.90
20670;DHT22;10494;50.868;4.180;2022-09-09T10:26:53;18.90;99.90
20670;DHT22;10494;50.868;4.180;2022-09-09T10:37:36;19.40;99.90
20670;DHT22;10494;50.868;4.180;2022-09-09T10:40:26;19.40;99.90
20670;DHT22;10494;50.868;4.180;2022-09-09T10:42:59;19.40;99.90
20670;DHT22;10494;50.868;4.180;2022-09-09T10:45:57;19.50;99.90
20670;DHT22;10494;50.868;4.180;2022-09-09T10:48:40;19.70;99.90
20670;DHT22;10494;50.868;4.180;2022-09-09T10:51:37;19.70;99.90
20670;DHT22;10494;50.868;4.180;2022-09-09T10:57:36;19.40;99.90
20670;DHT22;10494;50.868;4.180;2022-09-09T11:00:32;19.50;99.90
20670;DHT22;10494;50.868;4.180;2022-09-09T11:02:58;19.70;99.90
20670;DHT22;10494;50.868;4.180;2022-09-09T11:05:45;19.60;99.90
20670;DHT22;10494;50.868;4.180;2022-09-09T11:10:51;19.80;99.90
20670;DHT22;10494;50.868;4.180;2022-09-09T11:16:04;20.10;99.90
20670;DHT22;10494;50.868;4.180;2022-09-09T11:18:39;20.40;99.90
20670;DHT22;10494;50.868;4.180;2022-09-09T11:21:15;20.10;99.90
20670;DHT22;10494;50.868;4.180;2022-09-09T11:23:47;20.00;99.90
20670;DHT22;10494;50.868;4.180;2022-09-09T11:26:29;19.90;99.90
20670;DHT22;10494;50.868;4.180;2022-09-09T11:29:13;19.60;99.90
20670;DHT22;10494;50.868;4.180;2022-09-09T11:31:44;19.40;99.90
20670;DHT22;10494;50.868;4.180;2022-09-09T11:37:23;19.30;99.90
20670;DHT22;10494;50.868;4.180;2022-09-09T11:39:59;19.30;99.90
20670;DHT22;10494;50.868;4.180;2022-09-09T11:42:28;19.30;99.90
20670;DHT22;10494;50.868;4.180;2022-09-09T11:44:53;19.40;99.90
20670;DHT22;10494;50.868;4.180;2022-09-09T11:47:28;19.40;99.90
20670;DHT22;10494;50.868;4.180;2022-09-09T11:50:31;19.40;99.90
20670;DHT22;10494;50.868;4.180;2022-09-09T11:53:21;19.40;99.90
20670;DHT22;10494;50.868;4.180;2022-09-09T11:55:59;19.50;99.90
20670;DHT22;10494;50.868;4.180;2022-09-09T11:58:27;19.60;99.90
20670;DHT22;10494;50.868;4.180;2022-09-09T12:00:58;19.80;99.90
20670;DHT22;10494;50.868;4.180;2022-09-09T12:06:12;19.80;99.90
20670;DHT22;10494;50.868;4.180;2022-09-09T12:08:43;19.80;99.90
20670;DHT22;10494;50.868;4.180;2022-09-09T12:11:10;19.80;99.90
20670;DHT22;10494;50.868;4.180;2022-09-09T12:13:36;19.80;99.90
20670;DHT22;10494;50.868;4.180;2022-09-09T12:16:02;19.60;99.90
20670;DHT22;10494;50.868;4.180;2022-09-09T12:18:35;19.60;99.90
20670;DHT22;10494;50.868;4.180;2022-09-09T12:21:17;19.60;99.90
20670;DHT22;10494;50.868;4.180;2022-09-09T12:23:52;19.70;99.90
20670;DHT22;10494;50.868;4.180;2022-09-09T12:30:07;20.00;99.90
20670;DHT22;10494;50.868;4.180;2022-09-09T12:32:34;20.10;99.90
20670;DHT22;10494;50.868;4.180;2022-09-09T12:35:03;19.90;99.90
20670;DHT22;10494;50.868;4.180;2022-09-09T12:37:56;19.90;99.90
20670;DHT22;10494;50.868;4.180;2022-09-09T12:40:28;20.10;99.90
20670;DHT22;10494;50.868;4.180;2022-09-09T12:42:54;20.10;99.90
20670;DHT22;10494;50.868;4.180;2022-09-09T12:45:26;20.10;99.90
20670;DHT22;10494;50.868;4.180;2022-09-09T12:48:11;20.20;99.90
20670;DHT22;10494;50.868;4.180;2022-09-09T12:50:43;20.20;99.90
20670;DHT22;10494;50.868;4.180;2022-09-09T12:53:23;20.30;99.90
20670;DHT22;10494;50.868;4.180;2022-09-09T12:58:20;20.20;99.90
20670;DHT22;10494;50.868;4.180;2022-09-09T13:00:53;20.20;99.90
20670;DHT22;10494;50.868;4.180;2022-09-09T13:03:22;20.40;99.90
20670;DHT22;10494;50.868;4.180;2022-09-09T13:05:48;20.40;99.90
20670;DHT22;10494;50.868;4.180;2022-09-09T13:08:15;20.40;99.90
20670;DHT22;10494;50.868;4.180;2022-09-09T13:13:15;20.70;99.90
20670;DHT22;10494;50.868;4.180;2022-09-09T13:15:50;20.80;99.90
20670;DHT22;10494;50.868;4.180;2022-09-09T13:18:21;20.70;99.90
20670;DHT22;10494;50.868;4.180;2022-09-09T13:20:48;20.70;99.90
20670;DHT22;10494;50.868;4.180;2022-09-09T13:23:15;20.80;99.90
20670;DHT22;10494;50.868;4.180;2022-09-09T13:25:56;20.70;99.90
20670;DHT22;10494;50.868;4.180;2022-09-09T13:28:25;20.80;99.90
20670;DHT22;10494;50.868;4.180;2022-09-09T13:31:18;21.00;99.90
20670;DHT22;10494;50.868;4.180;2022-09-09T13:33:45;21.20;99.90
20670;DHT22;10494;50.868;4.180;2022-09-09T13:36:12;21.40;99.90
20670;DHT22;10494;50.868;4.180;2022-09-09T13:41:25;21.50;99.90
20670;DHT22;10494;50.868;4.180;2022-09-09T13:43:51;21.70;99.90
20670;DHT22;10494;50.868;4.180;2022-09-09T13:46:38;21.50;99.90
20670;DHT22;10494;50.868;4.180;2022-09-09T13:51:50;21.30;99.90
20670;DHT22;10494;50.868;4.180;2022-09-09T13:54:19;21.30;99.90
20670;DHT22;10494;50.868;4.180;2022-09-09T13:56:45;21.30;99.90
20670;DHT22;10494;50.868;4.180;2022-09-09T13:59:17;21.30;99.90
20670;DHT22;10494;50.868;4.180;2022-09-09T14:01:44;21.40;99.90
20670;DHT22;10494;50.868;4.180;2022-09-09T14:04:09;21.20;99.90
20670;DHT22;10494;50.868;4.180;2022-09-09T14:06:36;21.40;99.90
20670;DHT22;10494;50.868;4.180;2022-09-09T14:09:04;21.50;99.90
20670;DHT22;10494;50.868;4.180;2022-09-09T14:11:29;21.60;99.90
20670;DHT22;10494;50.868;4.180;2022-09-09T14:13:55;21.40;99.90
20670;DHT22;10494;50.868;4.180;2022-09-09T14:16:21;21.30;99.90
20670;DHT22;10494;50.868;4.180;2022-09-09T14:18:47;21.40;99.90
20670;DHT22;10494;50.868;4.180;2022-09-09T14:21:13;21.40;99.90
20670;DHT22;10494;50.868;4.180;2022-09-09T14:23:39;21.40;99.90
20670;DHT22;10494;50.868;4.180;2022-09-09T14:26:05;21.50;99.90
20670;DHT22;10494;50.868;4.180;2022-09-09T14:28:31;21.60;99.90
20670;DHT22;10494;50.868;4.180;2022-09-09T14:31:00;21.50;99.90
20670;DHT22;10494;50.868;4.180;2022-09-09T14:33:27;21.50;99.90
20670;DHT22;10494;50.868;4.180;2022-09-09T14:36:02;21.50;99.90
20670;DHT22;10494;50.868;4.180;2022-09-09T14:38:34;21.60;99.90
20670;DHT22;10494;50.868;4.180;2022-09-09T14:41:00;21.60;99.90
20670;DHT22;10494;50.868;4.180;2022-09-09T14:43:28;21.70;99.90
20670;DHT22;10494;50.868;4.180;2022-09-09T14:45:55;21.70;99.90
20670;DHT22;10494;50.868;4.180;2022-09-09T14:48:21;21.70;99.90
20670;DHT22;10494;50.868;4.180;2022-09-09T14:50:46;21.70;99.90
20670;DHT22;10494;50.868;4.180;2022-09-09T14:53:12;21.60;99.90
20670;DHT22;10494;50.868;4.180;2022-09-09T14:55:38;21.50;99.90
20670;DHT22;10494;50.868;4.180;2022-09-09T14:58:04;21.40;99.90
20670;DHT22;10494;50.868;4.180;2022-09-09T15:00:30;21.40;99.90
20670;DHT22;10494;50.868;4.180;2022-09-09T15:02:56;21.40;99.90
20670;DHT22;10494;50.868;4.180;2022-09-09T15:05:22;21.40;99.90
20670;DHT22;10494;50.868;4.180;2022-09-09T15:07:49;21.40;99.90
20670;DHT22;10494;50.868;4.180;2022-09-09T15:10:15;21.40;99.90
20670;DHT22;10494;50.868;4.180;2022-09-09T15:12:42;21.40;99.90
20670;DHT22;10494;50.868;4.180;2022-09-09T15:15:09;21.40;99.90
20670;DHT22;10494;50.868;4.180;2022-09-09T15:17:34;21.30;99.90
20670;DHT22;10494;50.868;4.180;2022-09-09T15:20:00;21.10;99.90
20670;DHT22;10494;50.868;4.180;2022-09-09T15:22:26;20.90;99.90
20670;DHT22;10494;50.868;4.180;2022-09-09T15:24:51;21.00;99.90
20670;DHT22;10494;50.868;4.180;2022-09-09T15:27:17;21.00;99.90
20670;DHT22;10494;50.868;4.180;2022-09-09T15:29:43;21.10;99.90
20670;DHT22;10494;50.868;4.180;2022-09-09T15:32:09;21.30;99.90
20670;DHT22;10494;50.868;4.180;2022-09-09T15:34:35;21.40;99.90
20670;DHT22;10494;50.868;4.180;2022-09-09T15:37:00;21.20;99.90
20670;DHT22;10494;50.868;4.180;2022-09-09T15:39:26;21.20;99.90
20670;DHT22;10494;50.868;4.180;2022-09-09T15:41:52;21.10;99.90
20670;DHT22;10494;50.868;4.180;2022-09-09T15:44:18;20.80;99.90
20670;DHT22;10494;50.868;4.180;2022-09-09T15:46:45;20.70;99.90
20670;DHT22;10494;50.868;4.180;2022-09-09T15:49:13;20.80;99.90
20670;DHT22;10494;50.868;4.180;2022-09-09T15:51:41;20.80;99.90
20670;DHT22;10494;50.868;4.180;2022-09-09T15:54:08;20.90;99.90
20670;DHT22;10494;50.868;4.180;2022-09-09T15:56:34;20.70;99.90
20670;DHT22;10494;50.868;4.180;2022-09-09T15:59:01;20.80;99.90
20670;DHT22;10494;50.868;4.180;2022-09-09T16:01:30;20.80;99.90
20670;DHT22;10494;50.868;4.180;2022-09-09T16:03:57;20.80;99.90
20670;DHT22;10494;50.868;4.180;2022-09-09T16:06:24;21.00;99.90
20670;DHT22;10494;50.868;4.180;2022-09-09T16:08:52;20.90;99.90
20670;DHT22;10494;50.868;4.180;2022-09-09T16:11:24;20.80;99.90
20670;DHT22;10494;50.868;4.180;2022-09-09T16:13:51;20.80;99.90
20670;DHT22;10494;50.868;4.180;2022-09-09T16:16:19;20.60;99.90
20670;DHT22;10494;50.868;4.180;2022-09-09T16:18:48;20.10;99.90
20670;DHT22;10494;50.868;4.180;2022-09-09T16:21:17;19.90;99.90
20670;DHT22;10494;50.868;4.180;2022-09-09T16:23:44;19.90;99.90
20670;DHT22;10494;50.868;4.180;2022-09-09T16:26:11;20.00;99.90
20670;DHT22;10494;50.868;4.180;2022-09-09T16:28:38;20.10;99.90
20670;DHT22;10494;50.868;4.180;2022-09-09T16:31:09;20.10;99.90
20670;DHT22;10494;50.868;4.180;2022-09-09T16:33:36;20.10;99.90
20670;DHT22;10494;50.868;4.180;2022-09-09T16:36:10;20.10;99.90
20670;DHT22;10494;50.868;4.180;2022-09-09T16:38:36;20.40;99.90
20670;DHT22;10494;50.868;4.180;2022-09-09T16:41:06;20.70;99.90
20670;DHT22;10494;50.868;4.180;2022-09-09T16:43:33;21.00;99.90
20670;DHT22;10494;50.868;4.180;2022-09-09T16:45:59;21.20;99.90
20670;DHT22;10494;50.868;4.180;2022-09-09T16:48:31;21.20;99.90
20670;DHT22;10494;50.868;4.180;2022-09-09T16:51:06;21.20;99.90
20670;DHT22;10494;50.868;4.180;2022-09-09T16:53:33;21.00;99.90
20670;DHT22;10494;50.868;4.180;2022-09-09T16:56:05;20.90;99.90
20670;DHT22;10494;50.868;4.180;2022-09-09T16:58:31;21.00;99.90
20670;DHT22;10494;50.868;4.180;2022-09-09T17:01:01;21.10;99.90
20670;DHT22;10494;50.868;4.180;2022-09-09T17:03:28;21.00;99.90
20670;DHT22;10494;50.868;4.180;2022-09-09T17:05:54;20.80;99.90
20670;DHT22;10494;50.868;4.180;2022-09-09T17:08:20;20.80;99.90
20670;DHT22;10494;50.868;4.180;2022-09-09T17:10:45;20.60;99.90
20670;DHT22;10494;50.868;4.180;2022-09-09T17:13:13;20.50;99.90
20670;DHT22;10494;50.868;4.180;2022-09-09T17:15:40;20.40;99.90
20670;DHT22;10494;50.868;4.180;2022-09-09T17:18:11;20.30;99.90
20670;DHT22;10494;50.868;4.180;2022-09-09T17:20:40;20.30;99.90
20670;DHT22;10494;50.868;4.180;2022-09-09T17:23:07;20.20;99.90
20670;DHT22;10494;50.868;4.180;2022-09-09T17:25:33;20.10;99.90
20670;DHT22;10494;50.868;4.180;2022-09-09T17:27:59;19.90;99.90